Time;durP1;ratioP1;P1;durP2;ratioP2;P2;SDS_P1;SDS_P2;PMS_P1;PMS_P2;Temp;Humidity;BMP_temperature;BMP_pressure;BME280_temperature;BME280_humidity;BME280_pressure;Samples;Min_cycle;Max_cycle;Signal;HPM_P1;HPM_P2
2022/09/29 05:23:54;;;;;;;8.03;3.33;;;14.00;80.90;;;;;;4971300;28;20634;-91
2022/09/29 05:26:23;;;;;;;6.67;3.37;;;14.00;80.70;;;;;;4954645;29;20232;-92
2022/09/29 05:28:52;;;;;;;7.23;3.20;;;14.00;80.90;;;;;;4957710;28;20293;-91
2022/09/29 05:31:20;;;;;;;8.57;3.40;;;14.00;80.90;;;;;;4973387;28;20251;-92
2022/09/29 05:33:47;;;;;;;15.03;5.40;;;14.00;80.90;;;;;;4972900;28;20296;-92
2022/09/29 05:36:14;;;;;;;7.07;3.43;;;13.90;80.50;;;;;;4974768;28;20262;-95
2022/09/29 05:38:42;;;;;;;8.77;4.00;;;13.90;80.70;;;;;;4976451;28;20201;-96
2022/09/29 05:41:12;;;;;;;14.50;5.67;;;13.90;81.30;;;;;;4975800;28;20231;-92
2022/09/29 05:43:40;;;;;;;11.37;4.60;;;13.90;81.30;;;;;;4971356;28;20726;-94
2022/09/29 05:46:09;;;;;;;8.33;3.80;;;13.90;81.30;;;;;;4975327;28;20235;-93
2022/09/29 05:48:36;;;;;;;5.40;3.10;;;13.90;81.70;;;;;;4976033;28;20207;-93
2022/09/29 05:51:09;;;;;;;8.60;3.67;;;13.90;82.00;;;;;;4975068;28;20308;-93
2022/09/29 05:53:42;;;;;;;7.83;3.70;;;13.90;83.40;;;;;;4973450;28;20297;-93
2022/09/29 05:56:16;;;;;;;14.23;4.80;;;13.90;83.70;;;;;;4973159;28;20631;-93
2022/09/29 05:58:49;;;;;;;9.23;4.00;;;13.90;83.90;;;;;;4973374;28;20203;-93
2022/09/29 06:01:18;;;;;;;11.93;4.77;;;13.90;84.00;;;;;;4972293;28;20671;-94
2022/09/29 06:03:47;;;;;;;7.50;3.63;;;13.90;84.00;;;;;;4971425;28;20713;-92
2022/09/29 06:06:17;;;;;;;8.87;3.73;;;13.90;84.40;;;;;;4973858;28;20267;-93
2022/09/29 06:08:45;;;;;;;10.93;4.43;;;14.00;84.80;;;;;;4972544;28;20204;-93
2022/09/29 06:11:32;;;;;;;7.37;3.67;;;13.90;84.20;;;;;;4971928;28;20292;-92
2022/09/29 06:14:01;;;;;;;6.03;3.13;;;14.00;84.80;;;;;;4973032;28;20231;-94
2022/09/29 06:16:30;;;;;;;6.50;3.40;;;14.00;84.20;;;;;;4973535;28;20266;-93
2022/09/29 06:19:01;;;;;;;8.03;3.67;;;14.00;84.70;;;;;;4973428;28;20209;-94
2022/09/29 06:21:29;;;;;;;8.90;3.93;;;14.00;85.40;;;;;;4965705;28;20241;-92
2022/09/29 06:23:58;;;;;;;7.67;3.37;;;14.00;84.90;;;;;;4994010;23;20309;-93
2022/09/29 06:26:28;;;;;;;8.97;4.00;;;14.00;84.80;;;;;;5012487;28;20253;-94
2022/09/29 06:28:57;;;;;;;6.00;3.13;;;14.00;85.00;;;;;;5012528;28;20265;-96
2022/09/29 06:31:26;;;;;;;9.73;4.30;;;14.10;85.30;;;;;;5012660;28;20262;-92
2022/09/29 06:33:56;;;;;;;9.07;3.90;;;14.10;86.50;;;;;;5012857;28;20601;-94
2022/09/29 06:39:16;;;;;;;8.70;3.83;;;14.10;86.80;;;;;;5012269;28;20199;-94
2022/09/29 06:41:50;;;;;;;7.33;3.67;;;14.10;86.60;;;;;;5012680;28;20228;-94
2022/09/29 06:44:19;;;;;;;9.40;3.80;;;14.10;86.80;;;;;;5011406;28;20239;-94
2022/09/29 06:46:47;;;;;;;6.80;3.80;;;14.20;87.00;;;;;;5012307;28;20255;-93
2022/09/29 06:49:20;;;;;;;6.97;3.30;;;14.20;86.70;;;;;;5012667;28;20210;-94
2022/09/29 06:51:48;;;;;;;7.20;3.50;;;14.20;87.30;;;;;;5012550;28;20194;-93
2022/09/29 06:54:17;;;;;;;7.67;3.33;;;14.20;86.60;;;;;;5012681;28;20304;-93
2022/09/29 06:56:51;;;;;;;13.37;4.33;;;14.20;85.60;;;;;;5012206;28;20209;-94
2022/09/29 06:59:20;;;;;;;7.63;3.63;;;14.30;86.10;;;;;;5012747;28;20906;-94
2022/09/29 07:01:50;;;;;;;4.93;2.57;;;14.30;85.80;;;;;;5011200;28;20248;-93
2022/09/29 07:04:19;;;;;;;6.77;3.80;;;14.30;86.20;;;;;;4992899;28;20263;-92
2022/09/29 07:06:48;;;;;;;6.47;3.73;;;14.30;85.70;;;;;;4992885;28;20201;-94
2022/09/29 07:09:18;;;;;;;8.17;4.03;;;14.40;86.60;;;;;;5007834;28;20225;-92
2022/09/29 07:11:51;;;;;;;8.57;3.27;;;14.40;86.40;;;;;;5010096;28;20216;-93
2022/09/29 07:14:21;;;;;;;10.07;4.57;;;14.40;86.40;;;;;;5006954;28;20243;-93
2022/09/29 07:16:50;;;;;;;16.87;5.20;;;14.40;85.70;;;;;;5012249;28;20211;-93
2022/09/29 07:19:19;;;;;;;13.67;4.73;;;14.50;85.60;;;;;;5026205;28;20197;-92
2022/09/29 07:21:54;;;;;;;4.10;2.67;;;14.50;85.40;;;;;;5025364;28;20291;-94
2022/09/29 07:24:23;;;;;;;7.47;3.50;;;14.50;86.00;;;;;;5007711;28;20277;-92
2022/09/29 07:26:53;;;;;;;5.30;2.70;;;14.50;85.60;;;;;;5014933;28;20603;-92
2022/09/29 07:29:31;;;;;;;12.23;4.23;;;14.60;86.30;;;;;;5014799;28;20234;-93
2022/09/29 07:32:01;;;;;;;9.27;3.60;;;14.60;87.00;;;;;;5012799;28;20204;-93
2022/09/29 07:34:33;;;;;;;7.70;3.37;;;14.60;86.70;;;;;;5012614;28;20206;-91
2022/09/29 07:37:00;;;;;;;9.73;3.83;;;14.60;86.50;;;;;;5009933;28;20219;-92
2022/09/29 07:39:27;;;;;;;14.00;5.03;;;14.70;86.30;;;;;;5013159;28;20256;-92
2022/09/29 07:41:57;;;;;;;10.53;4.23;;;14.80;86.70;;;;;;5011232;28;20218;-91
2022/09/29 07:44:26;;;;;;;11.27;4.43;;;14.80;87.10;;;;;;5012573;28;20630;-93
2022/09/29 07:46:53;;;;;;;9.43;3.77;;;14.90;86.00;;;;;;5018264;28;20741;-95
2022/09/29 07:49:20;;;;;;;19.37;6.40;;;15.00;86.10;;;;;;5023193;23;20232;-93
2022/09/29 07:54:36;;;;;;;7.87;3.90;;;15.10;86.20;;;;;;5016059;28;20229;-92
2022/09/29 07:57:10;;;;;;;8.70;3.60;;;15.10;86.10;;;;;;5018182;28;20203;-93
2022/09/29 07:59:39;;;;;;;5.37;2.90;;;15.20;86.40;;;;;;5020322;28;20443;-94
2022/09/29 08:02:09;;;;;;;8.60;3.67;;;15.20;84.80;;;;;;5019437;28;20227;-94
2022/09/29 08:04:37;;;;;;;6.77;3.00;;;15.30;84.20;;;;;;5017797;28;20209;-94
2022/09/29 08:07:13;;;;;;;8.30;3.67;;;15.30;83.60;;;;;;5019689;28;20272;-93
2022/09/29 08:09:41;;;;;;;4.73;2.70;;;15.40;84.10;;;;;;5023513;28;20220;-94
2022/09/29 08:12:13;;;;;;;7.13;3.27;;;15.40;84.10;;;;;;5019677;28;20207;-94
2022/09/29 08:14:43;;;;;;;7.23;3.27;;;15.50;85.00;;;;;;5021056;28;20204;-94
2022/09/29 08:17:12;;;;;;;5.73;3.00;;;15.50;85.00;;;;;;5020037;28;20670;-92
2022/09/29 08:19:45;;;;;;;6.67;2.93;;;15.60;85.70;;;;;;5021909;28;20208;-93
2022/09/29 08:22:23;;;;;;;8.07;3.20;;;15.60;85.50;;;;;;4993816;28;20230;-92
2022/09/29 08:24:53;;;;;;;6.37;3.20;;;15.70;84.70;;;;;;4986504;28;20225;-95
2022/09/29 08:27:28;;;;;;;10.77;4.30;;;15.70;85.10;;;;;;5000512;28;20218;-93
2022/09/29 08:29:57;;;;;;;5.73;3.17;;;15.80;85.00;;;;;;4995821;28;20778;-94
2022/09/29 08:32:25;;;;;;;7.57;3.50;;;15.90;85.00;;;;;;5005182;28;20208;-94
2022/09/29 08:34:53;;;;;;;6.17;3.57;;;15.90;84.70;;;;;;5002738;28;20240;-94
2022/09/29 08:37:22;;;;;;;6.83;3.33;;;16.00;85.30;;;;;;5001648;28;20218;-93
2022/09/29 08:39:55;;;;;;;5.37;2.93;;;16.10;86.10;;;;;;4998857;28;20253;-91
2022/09/29 08:42:29;;;;;;;5.63;3.20;;;16.20;85.60;;;;;;5000077;28;20202;-92
2022/09/29 08:45:01;;;;;;;6.87;3.30;;;16.30;84.00;;;;;;4984504;28;20238;-93
2022/09/29 08:47:36;;;;;;;5.97;2.80;;;16.30;83.80;;;;;;4988281;28;20212;-95
2022/09/29 08:50:11;;;;;;;5.70;3.07;;;16.40;82.90;;;;;;4999250;28;20224;-95
2022/09/29 08:52:43;;;;;;;7.90;3.40;;;16.50;84.10;;;;;;5003388;28;20206;-92
2022/09/29 08:55:53;;;;;;;10.50;4.20;;;16.60;83.80;;;;;;5004068;28;20203;-92
2022/09/29 08:58:27;;;;;;;8.03;3.77;;;16.70;84.30;;;;;;5002906;28;20210;-93
2022/09/29 09:01:09;;;;;;;6.27;3.47;;;16.80;83.60;;;;;;5004133;28;20211;-93
2022/09/29 09:04:06;;;;;;;7.87;3.63;;;16.90;84.10;;;;;;5002965;28;20238;-92
2022/09/29 09:06:41;;;;;;;9.37;4.20;;;17.00;84.10;;;;;;4980417;28;20213;-94
2022/09/29 09:13:02;;;;;;;7.27;3.13;;;17.30;84.40;;;;;;4976432;28;20221;-93
2022/09/29 09:15:47;;;;;;;8.63;3.23;;;17.50;85.30;;;;;;4998557;28;20267;-94
2022/09/29 09:18:47;;;;;;;7.47;3.33;;;17.70;85.40;;;;;;4999594;28;20209;-94
2022/09/29 09:21:18;;;;;;;5.60;2.67;;;17.90;86.20;;;;;;4996869;28;20229;-95
2022/09/29 09:23:54;;;;;;;7.53;2.93;;;18.20;84.80;;;;;;4995220;28;20225;-94
2022/09/29 09:26:28;;;;;;;4.70;2.27;;;18.40;81.00;;;;;;4994892;28;20258;-94
2022/09/29 09:28:58;;;;;;;5.93;2.77;;;18.60;82.80;;;;;;4994938;28;20202;-94
2022/09/29 09:31:33;;;;;;;6.30;2.60;;;18.90;81.00;;;;;;4995139;28;20194;-94
2022/09/29 09:34:15;;;;;;;8.67;2.80;;;19.10;81.30;;;;;;4993685;28;20213;-96
2022/09/29 09:36:56;;;;;;;12.03;4.27;;;19.30;78.00;;;;;;5001501;28;20277;-94
2022/09/29 09:39:37;;;;;;;5.60;2.47;;;19.50;76.20;;;;;;5011496;28;20203;-96
2022/09/29 09:42:15;;;;;;;6.80;2.60;;;19.70;74.70;;;;;;5008685;28;20206;-94
2022/09/29 09:44:48;;;;;;;2.47;1.37;;;19.90;74.10;;;;;;5001006;28;20233;-96
2022/09/29 09:47:32;;;;;;;3.90;1.60;;;20.00;73.70;;;;;;4999433;28;20239;-94
2022/09/29 09:50:38;;;;;;;6.50;1.97;;;20.10;72.00;;;;;;5001308;28;20239;-95
2022/09/29 09:53:14;;;;;;;8.40;2.80;;;20.30;68.70;;;;;;4959812;28;20221;-96
2022/09/29 09:55:42;;;;;;;4.53;1.60;;;20.40;69.00;;;;;;4996365;28;20244;-96
2022/09/29 10:01:18;;;;;;;12.07;2.63;;;20.60;67.10;;;;;;4995320;28;20209;-96
2022/09/29 10:03:46;;;;;;;4.60;1.77;;;20.60;67.70;;;;;;4993205;28;20206;-95
2022/09/29 10:06:16;;;;;;;3.97;1.50;;;20.70;68.90;;;;;;4993197;28;20249;-95
2022/09/29 10:08:45;;;;;;;6.33;2.30;;;20.90;68.10;;;;;;4976991;28;20209;-96
2022/09/29 10:11:24;;;;;;;4.50;1.27;;;21.00;68.80;;;;;;4987064;28;20202;-94
2022/09/29 10:14:06;;;;;;;4.57;2.00;;;21.20;65.60;;;;;;4979586;28;20202;-96
2022/09/29 10:16:41;;;;;;;6.67;2.00;;;21.30;67.10;;;;;;4988859;28;20261;-94
2022/09/29 10:19:12;;;;;;;6.83;2.30;;;21.50;64.60;;;;;;4996527;28;20265;-96
2022/09/29 10:21:42;;;;;;;4.40;1.63;;;21.60;64.10;;;;;;4996372;28;20315;-96
2022/09/29 10:27:48;;;;;;;3.07;1.27;;;21.60;61.40;;;;;;4988634;28;20242;-94
2022/09/29 10:30:21;;;;;;;7.23;2.10;;;21.50;62.50;;;;;;4993809;28;20293;-93
2022/09/29 10:33:00;;;;;;;8.10;3.00;;;21.40;62.00;;;;;;4998302;28;20237;-95
2022/09/29 10:35:57;;;;;;;9.33;3.30;;;21.20;63.20;;;;;;4993816;28;20206;-93
2022/09/29 10:38:28;;;;;;;3.70;1.47;;;21.10;62.20;;;;;;4991593;28;20306;-94
2022/09/29 10:41:00;;;;;;;5.10;1.10;;;20.90;62.70;;;;;;4993153;28;20206;-93
2022/09/29 10:43:36;;;;;;;6.00;2.30;;;20.70;63.10;;;;;;4987216;28;20202;-94
2022/09/29 10:46:06;;;;;;;9.80;2.93;;;20.60;63.20;;;;;;4999029;28;20225;-94
2022/09/29 10:48:57;;;;;;;7.40;2.77;;;20.40;63.30;;;;;;5004518;28;20207;-93
2022/09/29 10:51:39;;;;;;;6.87;3.00;;;20.20;64.00;;;;;;4995773;28;20249;-94
2022/09/29 10:54:11;;;;;;;11.23;4.03;;;20.00;64.30;;;;;;5002403;28;20203;-93
2022/09/29 10:56:47;;;;;;;8.17;3.10;;;19.90;64.80;;;;;;5008688;28;20286;-92
2022/09/29 10:59:17;;;;;;;10.70;3.83;;;19.70;65.40;;;;;;5000082;28;20209;-93
2022/09/29 11:01:54;;;;;;;8.13;3.17;;;19.60;65.80;;;;;;5002111;28;20201;-93
2022/09/29 11:04:26;;;;;;;7.07;2.70;;;19.50;66.00;;;;;;5003007;28;20344;-92
2022/09/29 11:06:54;;;;;;;7.43;3.00;;;19.40;66.10;;;;;;5005759;28;20194;-93
2022/09/29 11:09:35;;;;;;;10.23;3.10;;;19.20;66.30;;;;;;4999643;28;20211;-94
2022/09/29 11:12:03;;;;;;;10.70;3.57;;;19.10;66.10;;;;;;4995568;28;20308;-94
2022/09/29 11:14:31;;;;;;;7.60;2.80;;;19.10;67.00;;;;;;4995403;28;20218;-93
2022/09/29 11:17:06;;;;;;;10.03;3.63;;;19.00;67.20;;;;;;4990443;28;20883;-94
2022/09/29 11:19:33;;;;;;;8.83;3.10;;;18.90;67.40;;;;;;4998147;28;20606;-93
2022/09/29 11:22:33;;;;;;;7.77;2.87;;;18.80;67.30;;;;;;4992073;28;20759;-94
2022/09/29 11:25:32;;;;;;;4.53;1.60;;;18.70;66.50;;;;;;4997575;28;20225;-94
2022/09/29 11:28:15;;;;;;;8.47;2.97;;;18.70;67.00;;;;;;4993429;28;20213;-94
2022/09/29 11:30:53;;;;;;;5.47;2.03;;;18.60;67.50;;;;;;4996227;28;20654;-93
2022/09/29 11:33:31;;;;;;;5.53;2.13;;;18.50;67.00;;;;;;4996634;28;20201;-95
2022/09/29 11:39:16;;;;;;;6.03;2.30;;;18.40;67.40;;;;;;4994412;28;20267;-94
2022/09/29 11:42:03;;;;;;;5.50;2.10;;;18.30;66.80;;;;;;5001522;28;20296;-95
2022/09/29 11:45:03;;;;;;;8.87;3.10;;;18.20;67.30;;;;;;4996339;28;20233;-94
2022/09/29 11:48:07;;;;;;;8.43;2.87;;;18.20;67.50;;;;;;4996036;28;20200;-94
2022/09/29 11:50:43;;;;;;;6.80;2.50;;;18.10;68.10;;;;;;5005384;28;20373;-94
2022/09/29 11:53:39;;;;;;;9.37;2.87;;;18.00;68.00;;;;;;5013272;28;20235;-94
2022/09/29 11:56:34;;;;;;;5.60;2.23;;;17.90;68.50;;;;;;5019376;23;20240;-92
2022/09/29 11:59:41;;;;;;;4.23;1.77;;;17.90;69.20;;;;;;4990073;28;20228;-93
2022/09/29 12:02:48;;;;;;;6.90;2.53;;;17.80;69.40;;;;;;4994093;28;20253;-93
2022/09/29 12:08:20;;;;;;;4.57;1.80;;;17.80;69.60;;;;;;5017861;23;20227;-93
2022/09/29 12:10:55;;;;;;;4.03;1.80;;;17.80;69.70;;;;;;4996647;28;20205;-94
2022/09/29 12:13:35;;;;;;;3.73;1.70;;;17.70;69.60;;;;;;5012646;28;20223;-94
2022/09/29 12:16:11;;;;;;;4.73;2.03;;;17.70;70.10;;;;;;4996848;28;20247;-94
2022/09/29 12:18:45;;;;;;;4.97;1.93;;;17.70;69.60;;;;;;5012430;28;20205;-93
2022/09/29 12:21:16;;;;;;;8.30;2.83;;;17.70;69.20;;;;;;4998270;28;20235;-94
2022/09/29 12:24:05;;;;;;;4.97;1.77;;;17.70;69.80;;;;;;4988548;28;20209;-94
2022/09/29 12:26:54;;;;;;;6.27;1.60;;;17.70;70.70;;;;;;4995862;28;20290;-94
2022/09/29 12:29:33;;;;;;;14.00;3.83;;;17.70;70.80;;;;;;4980120;28;20225;-95
2022/09/29 12:32:09;;;;;;;4.67;1.80;;;17.70;70.50;;;;;;4983340;28;20713;-95
2022/09/29 12:35:23;;;;;;;5.87;1.87;;;17.80;70.90;;;;;;4978585;28;20586;-95
2022/09/29 12:41:14;;;;;;;7.77;2.33;;;17.90;71.00;;;;;;4977063;28;20309;-94
2022/09/29 12:44:02;;;;;;;8.17;2.93;;;18.10;71.70;;;;;;4992598;28;20201;-95
2022/09/29 12:46:40;;;;;;;8.57;3.23;;;18.20;71.10;;;;;;4989767;28;20718;-95
2022/09/29 12:49:23;;;;;;;5.67;1.97;;;18.40;72.50;;;;;;5008296;28;20197;-96
2022/09/29 12:52:31;;;;;;;16.33;5.13;;;18.60;72.70;;;;;;4999708;28;20268;-96
2022/09/29 12:55:05;;;;;;;7.37;2.37;;;18.90;72.40;;;;;;5006840;28;20244;-96
2022/09/29 12:57:39;;;;;;;5.30;1.90;;;19.10;72.30;;;;;;4997165;28;20743;-96
2022/09/29 13:00:12;;;;;;;10.50;3.10;;;19.30;70.80;;;;;;4996521;28;20202;-95
2022/09/29 13:03:07;;;;;;;5.60;1.93;;;19.60;70.90;;;;;;4990957;28;20210;-96
2022/09/29 13:09:45;;;;;;;14.87;4.60;;;19.90;68.10;;;;;;4936669;29;20220;-95
2022/09/29 13:15:58;;;;;;;4.07;1.80;;;20.10;66.80;;;;;;4921254;29;20212;-96
2022/09/29 13:19:28;;;;;;;4.57;1.83;;;20.20;66.80;;;;;;4982289;28;20234;-96
2022/09/29 13:22:57;;;;;;;10.20;3.80;;;20.30;66.80;;;;;;5040331;23;20336;-96
2022/09/29 13:25:34;;;;;;;2.00;1.10;;;20.40;66.80;;;;;;4998066;28;20259;-96
2022/09/29 13:28:10;;;;;;;3.83;1.30;;;20.50;67.00;;;;;;4980908;28;20206;-95
2022/09/29 13:31:08;;;;;;;3.10;1.27;;;20.60;66.40;;;;;;4980906;28;20584;-96
2022/09/29 13:44:03;;;;;;;6.63;2.47;;;21.40;66.70;;;;;;4975069;28;20239;-96
2022/09/29 13:46:41;;;;;;;3.10;1.27;;;21.70;64.70;;;;;;4986718;28;20218;-96
2022/09/29 13:52:31;;;;;;;4.23;1.73;;;22.00;62.20;;;;;;4969024;28;20204;-95
2022/09/29 13:55:45;;;;;;;4.63;2.20;;;22.10;62.30;;;;;;4986114;28;20213;-96
2022/09/29 13:58:23;;;;;;;4.47;1.63;;;22.20;61.20;;;;;;4996091;28;20208;-95
2022/09/29 14:00:56;;;;;;;4.00;1.77;;;22.30;60.70;;;;;;5003490;28;20221;-95
2022/09/29 14:03:32;;;;;;;2.73;1.37;;;22.30;60.20;;;;;;5018209;28;20201;-95
2022/09/29 14:06:19;;;;;;;5.43;2.37;;;22.30;60.50;;;;;;5296807;23;20280;-95
2022/09/29 14:09:06;;;;;;;4.90;1.90;;;22.30;59.70;;;;;;4994648;28;20577;-96
2022/09/29 14:12:15;;;;;;;2.83;1.17;;;22.20;59.30;;;;;;4998573;28;20264;-95
2022/09/29 14:15:00;;;;;;;4.27;1.63;;;22.20;59.00;;;;;;4996978;28;20667;-94
2022/09/29 14:17:37;;;;;;;2.73;1.13;;;22.00;58.70;;;;;;4988467;28;20204;-95
2022/09/29 14:20:14;;;;;;;2.40;1.23;;;22.00;59.40;;;;;;4997860;28;20295;-95
2022/09/29 14:23:00;;;;;;;3.80;1.67;;;21.80;59.30;;;;;;4984102;28;20253;-95
2022/09/29 14:25:56;;;;;;;2.77;1.23;;;21.80;58.90;;;;;;4979113;28;20225;-92
2022/09/29 14:28:35;;;;;;;2.90;1.43;;;21.70;58.00;;;;;;4975346;28;20186;-94
2022/09/29 14:31:05;;;;;;;6.10;2.40;;;21.60;57.40;;;;;;4993020;28;20210;-93
2022/09/29 14:33:43;;;;;;;1.23;0.90;;;21.40;58.50;;;;;;4980518;28;20595;-96
2022/09/29 14:36:16;;;;;;;4.87;1.57;;;21.30;58.30;;;;;;4966214;29;20216;-95
2022/09/29 14:39:19;;;;;;;4.73;1.83;;;21.20;57.90;;;;;;4965163;28;20206;-95
2022/09/29 14:41:51;;;;;;;3.90;1.53;;;21.10;57.90;;;;;;4965913;28;20227;-95
2022/09/29 14:44:25;;;;;;;6.33;2.37;;;21.00;58.20;;;;;;4969612;28;20685;-95
2022/09/29 14:53:56;;;;;;;8.50;2.73;;;20.80;58.00;;;;;;4986459;28;20291;-95
2022/09/29 14:56:52;;;;;;;6.07;1.97;;;20.70;59.10;;;;;;4993066;28;20254;-95
2022/09/29 14:59:34;;;;;;;6.90;2.37;;;20.60;59.00;;;;;;4981281;28;20218;-95
2022/09/29 15:02:31;;;;;;;2.23;1.20;;;20.60;59.20;;;;;;4959413;28;20242;-95
2022/09/29 15:04:59;;;;;;;2.90;1.40;;;20.50;58.60;;;;;;4912721;29;20208;-94
2022/09/29 15:07:33;;;;;;;2.33;1.13;;;20.50;59.20;;;;;;4954306;28;20272;-93
2022/09/29 15:10:55;;;;;;;5.80;2.20;;;20.40;58.90;;;;;;4959785;28;20211;-94
2022/09/29 15:13:27;;;;;;;6.23;2.27;;;20.40;58.40;;;;;;4959312;28;20211;-94
2022/09/29 15:16:00;;;;;;;6.43;2.63;;;20.40;59.40;;;;;;4961784;29;20219;-95
2022/09/29 15:18:53;;;;;;;3.83;1.60;;;20.30;59.50;;;;;;4958481;28;20613;-94
2022/09/29 15:21:41;;;;;;;5.67;2.43;;;20.30;60.20;;;;;;4957857;29;20599;-91
2022/09/29 15:24:31;;;;;;;6.83;2.30;;;20.20;59.90;;;;;;4959278;29;20216;-95
2022/09/29 15:27:02;;;;;;;7.20;3.17;;;20.20;60.30;;;;;;4962159;29;20302;-94
2022/09/29 15:29:32;;;;;;;7.60;3.50;;;20.20;60.50;;;;;;4964440;29;20204;-95
2022/09/29 15:32:01;;;;;;;2.10;1.43;;;20.10;60.80;;;;;;4961248;29;20258;-94
2022/09/29 15:34:39;;;;;;;5.67;2.03;;;20.10;60.70;;;;;;4978058;28;20312;-95
2022/09/29 15:37:16;;;;;;;8.17;3.53;;;20.10;60.10;;;;;;4986186;28;20786;-95
2022/09/29 15:39:51;;;;;;;2.93;1.50;;;20.00;60.30;;;;;;4977125;28;20277;-95
2022/09/29 15:42:22;;;;;;;6.97;2.87;;;20.00;60.30;;;;;;4984680;28;20206;-94
2022/09/29 15:45:12;;;;;;;5.73;1.90;;;19.90;59.90;;;;;;4975087;28;20218;-96
2022/09/29 15:47:58;;;;;;;4.93;1.90;;;19.90;59.90;;;;;;4958012;29;20218;-94
2022/09/29 15:50:31;;;;;;;6.23;1.60;;;19.80;59.90;;;;;;4958580;28;20203;-95
2022/09/29 15:53:01;;;;;;;4.80;1.73;;;19.80;60.20;;;;;;4961155;29;20203;-93
2022/09/29 15:55:36;;;;;;;4.30;1.70;;;19.70;60.60;;;;;;4962885;28;20673;-94
2022/09/29 15:58:42;;;;;;;3.23;1.60;;;19.70;60.50;;;;;;4964258;29;20222;-93
2022/09/29 16:01:13;;;;;;;4.23;1.77;;;19.60;60.40;;;;;;4966120;28;20203;-96
2022/09/29 16:03:52;;;;;;;4.03;1.77;;;19.50;60.50;;;;;;4978109;28;20221;-95
2022/09/29 16:06:28;;;;;;;7.63;2.67;;;19.50;60.60;;;;;;4967991;28;20242;-92
2022/09/29 16:09:02;;;;;;;8.83;3.57;;;19.50;60.50;;;;;;4975860;28;20659;-93
2022/09/29 16:11:34;;;;;;;5.93;2.73;;;19.40;60.80;;;;;;4983049;28;20275;-95
2022/09/29 16:14:10;;;;;;;8.20;2.87;;;19.40;60.90;;;;;;4988134;28;20281;-94
2022/09/29 16:16:46;;;;;;;2.83;1.70;;;19.30;60.80;;;;;;4987859;28;20205;-94
2022/09/29 16:19:19;;;;;;;5.70;1.97;;;19.20;61.30;;;;;;4997260;28;20201;-94
2022/09/29 16:21:52;;;;;;;3.20;1.47;;;19.20;61.40;;;;;;4998617;28;20229;-94
2022/09/29 16:24:30;;;;;;;4.57;1.40;;;19.20;61.20;;;;;;4979991;28;20214;-94
2022/09/29 16:27:07;;;;;;;3.57;1.57;;;19.10;61.60;;;;;;4978352;28;20230;-94
2022/09/29 16:29:37;;;;;;;5.47;2.17;;;19.10;62.00;;;;;;4993073;28;20698;-95
2022/09/29 16:32:36;;;;;;;6.73;1.83;;;19.10;62.00;;;;;;4971276;28;20211;-95
2022/09/29 16:35:59;;;;;;;8.17;1.93;;;19.10;61.90;;;;;;4978146;28;20225;-95
2022/09/29 16:38:34;;;;;;;2.40;1.37;;;19.10;62.30;;;;;;4918389;29;20263;-95
2022/09/29 16:41:10;;;;;;;6.43;2.43;;;19.10;62.50;;;;;;4969045;28;20209;-94
2022/09/29 16:43:46;;;;;;;4.27;1.87;;;19.00;62.60;;;;;;4961760;29;20233;-94
2022/09/29 16:46:17;;;;;;;5.67;2.47;;;19.00;63.00;;;;;;4962585;28;20240;-95
2022/09/29 16:48:56;;;;;;;5.40;1.97;;;18.90;63.10;;;;;;4961694;29;20221;-93
2022/09/29 16:51:24;;;;;;;5.93;2.40;;;19.00;63.40;;;;;;4960866;28;20857;-94
2022/09/29 16:54:09;;;;;;;3.83;1.63;;;18.90;63.30;;;;;;4979385;28;20280;-93
2022/09/29 16:56:39;;;;;;;8.73;3.23;;;18.90;63.50;;;;;;4967538;28;20667;-95
2022/09/29 17:02:23;;;;;;;16.67;3.37;;;18.90;63.80;;;;;;5583753;23;20248;-95
2022/09/29 17:04:53;;;;;;;6.83;3.07;;;18.90;64.00;;;;;;4998414;28;20201;-94
2022/09/29 17:07:23;;;;;;;8.80;3.00;;;18.90;64.20;;;;;;4997718;28;20261;-95
2022/09/29 17:09:57;;;;;;;3.43;2.10;;;18.80;64.40;;;;;;4999115;28;20208;-94
2022/09/29 17:15:19;;;;;;;9.77;3.93;;;18.80;64.40;;;;;;5004624;28;20197;-93
2022/09/29 17:17:51;;;;;;;8.40;3.03;;;18.80;64.40;;;;;;4999370;28;20580;-95
2022/09/29 17:20:28;;;;;;;3.13;2.17;;;18.80;64.40;;;;;;4998135;28;20209;-94
2022/09/29 17:29:50;;;;;;;10.23;4.70;;;18.70;64.60;;;;;;5016253;28;20213;-94
2022/09/29 17:35:48;;;;;;;7.23;2.50;;;18.70;64.30;;;;;;4984876;28;20213;-95
2022/09/29 17:38:22;;;;;;;9.57;4.53;;;18.70;64.30;;;;;;4997472;28;20202;-94
2022/09/29 17:41:16;;;;;;;5.17;2.87;;;18.70;64.40;;;;;;4997174;28;20203;-94
